KMAF/MAF METAR and TAF weather

Enter ICAO airport designator
Station Type Date Time Source
KMAF METAR 2020/10/29 16:53 UTC NOAA

KMAF 291653Z 33015KT 10SM CLR 13/01 A3032 RMK AO2 SLP253 T01330011


Station Type Date Time Source
KMAF Decoded METAR 2020/10/29 16:53 UTC NOAA

MIDLAND INTERNATIONAL AIRPORT , TX, United States (KMAF) 31-56N 102-12W 872M
Oct 29, 2020 - 12:53 PM EDT / 2020.10.29 1653 UTC
Wind: from the NNW (330 degrees) at 17 MPH (15 KT):0
Visibility: 10 mile(s):0
Sky conditions: clear
Temperature: 55.9 F (13.3 C)
Dew Point: 34.0 F (1.1 C)
Relative Humidity: 43%
Pressure (altimeter): 30.32 in. Hg (1026 hPa)
ob: KMAF 291653Z 33015KT 10SM CLR 13/01 A3032 RMK AO2 SLP253 T01330011
cycle: 17

Station Type Date Time Source
KMAF TAF 2020/10/29 15:57 UTC NOAA

TAF
AMD KMAF 291454Z 2915/3012 35013G20KT P6SM SKC

Example: see airport list